createdAt,value
2022-09-24T00:02:54.966Z,544
2022-09-24T00:08:13.589Z,544
2022-09-24T00:13:32.055Z,540
2022-09-24T00:18:50.691Z,543
2022-09-24T00:24:08.646Z,544
2022-09-24T00:29:27.228Z,542
2022-09-24T00:34:46.016Z,538
2022-09-24T00:40:04.230Z,537
2022-09-24T00:45:25.991Z,540
2022-09-24T00:50:44.731Z,543
2022-09-24T00:56:02.988Z,536
2022-09-24T01:01:21.491Z,539
2022-09-24T01:06:39.616Z,537
2022-09-24T01:11:58.342Z,534
2022-09-24T01:17:17.109Z,538
2022-09-24T01:22:35.885Z,533
2022-09-24T01:27:54.085Z,536
2022-09-24T01:33:12.293Z,533
2022-09-24T01:38:31.063Z,535
2022-09-24T01:43:49.243Z,534
2022-09-24T01:49:08.027Z,532
2022-09-24T01:54:26.789Z,539
2022-09-24T01:59:45.530Z,538
2022-09-24T02:05:04.023Z,540
2022-09-24T02:10:22.816Z,540
2022-09-24T02:15:41.052Z,539
2022-09-24T02:20:59.250Z,540
2022-09-24T02:26:17.502Z,539
2022-09-24T02:31:35.436Z,537
2022-09-24T02:36:53.805Z,537
2022-09-24T02:42:12.613Z,537
2022-09-24T02:47:30.791Z,534
2022-09-24T02:52:48.701Z,536
2022-09-24T02:58:07.213Z,533
2022-09-24T03:03:25.500Z,535
2022-09-24T03:08:44.259Z,532
2022-09-24T03:14:03.041Z,528
2022-09-24T03:19:21.251Z,533
2022-09-24T03:24:39.422Z,530
2022-09-24T03:29:57.961Z,533
2022-09-24T03:35:16.445Z,531
2022-09-24T03:40:34.960Z,534
2022-09-24T03:45:53.774Z,531
2022-09-24T03:51:12.234Z,531
2022-09-24T03:56:30.732Z,535
2022-09-24T04:01:49.060Z,533
2022-09-24T04:07:07.845Z,528
2022-09-24T04:12:26.351Z,533
2022-09-24T04:17:45.126Z,531
2022-09-24T04:23:03.303Z,531
2022-09-24T04:28:21.816Z,528
2022-09-24T04:33:40.600Z,526
2022-09-24T04:38:59.309Z,528
2022-09-24T04:44:18.096Z,523
2022-09-24T04:49:36.600Z,526
2022-09-24T04:54:55.208Z,526
2022-09-24T05:00:13.653Z,528
2022-09-24T05:05:31.874Z,524
2022-09-24T05:10:50.355Z,526
2022-09-24T05:16:09.112Z,525
2022-09-24T05:21:27.437Z,529
2022-09-24T05:26:45.593Z,527
2022-09-24T05:32:04.382Z,525
2022-09-24T05:37:22.717Z,533
2022-09-24T05:42:40.711Z,529
2022-09-24T05:47:59.478Z,524
2022-09-24T05:53:18.277Z,526
2022-09-24T05:58:36.708Z,525
2022-09-24T06:03:55.193Z,524
2022-09-24T06:09:13.438Z,521
2022-09-24T06:14:32.035Z,521
2022-09-24T06:19:49.968Z,523
2022-09-24T06:25:08.742Z,522
2022-09-24T06:30:27.490Z,526
2022-09-24T06:35:45.972Z,524
2022-09-24T06:41:04.571Z,524
2022-09-24T06:46:23.017Z,524
2022-09-24T06:51:41.602Z,520
2022-09-24T06:57:00.114Z,523
2022-09-24T07:02:18.075Z,520
2022-09-24T07:07:36.652Z,517
2022-09-24T07:12:54.916Z,526
2022-09-24T07:18:13.379Z,523
2022-09-24T07:23:31.827Z,523
2022-09-24T07:28:50.337Z,523
2022-09-24T07:34:08.885Z,521
2022-09-24T07:39:27.235Z,521
2022-09-24T07:44:45.478Z,518
2022-09-24T07:50:03.927Z,522
2022-09-24T07:55:22.691Z,521
2022-09-24T08:00:41.216Z,522
2022-09-24T08:05:59.422Z,525
2022-09-24T08:11:17.913Z,522
2022-09-24T08:16:36.388Z,524
2022-09-24T08:21:54.587Z,524
2022-09-24T08:27:17.128Z,524
2022-09-24T08:32:35.849Z,524
2022-09-24T08:37:54.300Z,524
2022-09-24T08:43:12.247Z,521
2022-09-24T08:48:30.517Z,522
2022-09-24T08:53:48.883Z,529
2022-09-24T08:59:06.793Z,533
2022-09-24T09:04:25.316Z,535
2022-09-24T09:09:43.754Z,533
2022-09-24T09:15:02.528Z,530
2022-09-24T09:20:21.373Z,529
2022-09-24T09:25:40.099Z,528
2022-09-24T09:30:58.612Z,530
2022-09-24T09:36:17.215Z,528
2022-09-24T09:41:35.553Z,525
2022-09-24T09:46:53.509Z,530
2022-09-24T09:52:11.905Z,527
2022-09-24T09:57:30.529Z,524
2022-09-24T10:02:48.913Z,520
2022-09-24T10:08:08.260Z,523
2022-09-24T10:13:26.829Z,525
2022-09-24T10:18:44.707Z,525
2022-09-24T10:24:03.233Z,528
2022-09-24T10:29:21.599Z,530
2022-09-24T10:34:40.078Z,524
2022-09-24T10:39:58.634Z,522
2022-09-24T10:45:17.027Z,521
2022-09-24T10:50:35.769Z,523
2022-09-24T10:55:54.667Z,519
2022-09-24T11:01:13.435Z,513
2022-09-24T11:06:32.182Z,511
2022-09-24T11:11:50.661Z,512
2022-09-24T11:17:09.038Z,510
2022-09-24T11:22:27.801Z,511
2022-09-24T11:27:46.607Z,510
2022-09-24T11:33:04.775Z,511
2022-09-24T11:38:22.985Z,506
2022-09-24T11:43:41.592Z,505
2022-09-24T11:49:00.048Z,505
2022-09-24T11:54:18.005Z,503
2022-09-24T11:59:36.766Z,501
2022-09-24T12:04:55.240Z,502
2022-09-24T12:10:13.983Z,505
2022-09-24T12:15:32.203Z,502
2022-09-24T12:20:50.395Z,500
2022-09-24T12:26:09.163Z,495
2022-09-24T12:31:28.100Z,498
2022-09-24T12:36:46.934Z,495
2022-09-24T12:42:05.717Z,492
2022-09-24T12:47:24.501Z,498
2022-09-24T12:52:42.757Z,494
2022-09-24T12:58:01.538Z,490
2022-09-24T13:03:20.308Z,489
2022-09-24T13:08:38.492Z,489
2022-09-24T13:13:56.984Z,490
2022-09-24T13:19:15.875Z,490
2022-09-24T13:24:34.264Z,488
2022-09-24T13:29:53.001Z,485
2022-09-24T13:35:11.877Z,485
2022-09-24T13:40:32.578Z,486
2022-09-24T13:45:51.081Z,484
2022-09-24T13:51:09.577Z,488
2022-09-24T13:56:28.130Z,486
2022-09-24T14:01:46.726Z,484
2022-09-24T14:07:05.195Z,481
2022-09-24T14:12:23.671Z,486
2022-09-24T14:17:42.047Z,486
2022-09-24T14:23:00.358Z,486
2022-09-24T14:28:18.571Z,483
2022-09-24T14:33:36.508Z,481
2022-09-24T14:38:54.999Z,485
2022-09-24T14:44:13.218Z,485
2022-09-24T14:49:31.671Z,481
2022-09-24T14:54:50.451Z,484
2022-09-24T15:00:08.950Z,484
2022-09-24T15:05:27.454Z,489
2022-09-24T15:10:45.913Z,484
2022-09-24T15:16:04.476Z,486
2022-09-24T15:21:22.971Z,486
2022-09-24T15:26:41.495Z,486
2022-09-24T15:31:59.676Z,494
2022-09-24T15:37:17.878Z,496
2022-09-24T15:42:36.693Z,497
2022-09-24T15:47:55.172Z,496
2022-09-24T15:53:13.610Z,491
2022-09-24T15:58:32.163Z,491
2022-09-24T16:03:50.055Z,488
2022-09-24T16:09:08.307Z,489
2022-09-24T16:14:27.001Z,485
2022-09-24T16:19:45.172Z,488
2022-09-24T16:25:03.672Z,485
2022-09-24T16:30:22.472Z,482
2022-09-24T16:35:40.676Z,484
2022-09-24T16:40:59.518Z,484
2022-09-24T16:46:20.768Z,483
2022-09-24T16:51:39.476Z,479
2022-09-24T16:56:58.243Z,484
2022-09-24T17:02:17.073Z,484
2022-09-24T17:07:35.900Z,481
2022-09-24T17:12:54.073Z,483
2022-09-24T17:18:12.590Z,486
2022-09-24T17:23:31.044Z,486
2022-09-24T17:28:48.984Z,488
2022-09-24T17:34:06.949Z,485
2022-09-24T17:39:24.924Z,482
2022-09-24T17:44:43.123Z,484
2022-09-24T17:50:01.986Z,483
2022-09-24T17:55:20.182Z,483
2022-09-24T18:00:38.387Z,486
2022-09-24T18:05:56.337Z,484
2022-09-24T18:11:14.533Z,488
2022-09-24T18:16:33.293Z,490
2022-09-24T18:21:51.533Z,492
2022-09-24T18:27:09.945Z,493
2022-09-24T18:32:28.704Z,498
2022-09-24T18:37:46.951Z,497
2022-09-24T18:43:05.579Z,497
2022-09-24T18:48:24.354Z,497
2022-09-24T18:53:42.635Z,496
2022-09-24T18:59:00.536Z,496
2022-09-24T19:04:31.794Z,497
2022-09-24T19:09:51.109Z,500
2022-09-24T19:15:09.940Z,500
2022-09-24T19:20:28.404Z,501
2022-09-24T19:25:46.908Z,504
2022-09-24T19:31:04.886Z,505
2022-09-24T19:36:23.511Z,503
2022-09-24T19:41:42.029Z,502
2022-09-24T19:47:00.765Z,504
2022-09-24T19:52:19.510Z,502
2022-09-24T19:57:38.043Z,504
2022-09-24T20:02:55.997Z,508
2022-09-24T20:08:14.432Z,507
2022-09-24T20:13:32.917Z,509
2022-09-24T20:18:50.852Z,508
2022-09-24T20:24:09.323Z,508
2022-09-24T20:29:27.608Z,509
2022-09-24T20:34:45.771Z,512
2022-09-24T20:40:04.533Z,511
2022-09-24T20:45:22.807Z,515
2022-09-24T20:50:41.410Z,516
2022-09-24T20:55:59.884Z,521
2022-09-24T21:01:18.479Z,522
2022-09-24T21:06:36.606Z,520
2022-09-24T21:11:55.381Z,521
2022-09-24T21:17:13.881Z,522
2022-09-24T21:22:32.053Z,522
2022-09-24T21:27:50.265Z,520
2022-09-24T21:33:08.764Z,519
2022-09-24T21:38:26.982Z,520
2022-09-24T21:43:45.417Z,519
2022-09-24T21:49:03.765Z,517
2022-09-24T21:54:22.516Z,519
2022-09-24T21:59:40.976Z,522
2022-09-24T22:04:59.586Z,522
2022-09-24T22:10:17.831Z,522
2022-09-24T22:15:36.033Z,521
2022-09-24T22:20:54.542Z,520
2022-09-24T22:26:13.289Z,519
2022-09-24T22:31:31.802Z,519
2022-09-24T22:36:50.274Z,522
2022-09-24T22:42:08.464Z,520
2022-09-24T22:47:27.247Z,520
2022-09-24T22:52:46.023Z,519
2022-09-24T22:58:04.507Z,518
2022-09-24T23:03:22.960Z,521
2022-09-24T23:08:41.866Z,526
2022-09-24T23:14:00.170Z,523
2022-09-24T23:19:18.956Z,525
2022-09-24T23:24:37.472Z,522
2022-09-24T23:29:56.227Z,519
2022-09-24T23:35:14.977Z,519
2022-09-24T23:40:33.053Z,520
2022-09-24T23:45:51.642Z,522
2022-09-24T23:51:10.278Z,520
2022-09-24T23:56:28.794Z,522
